Terminal Aerodrome Forecast
Issued by NWS

Home | Current Version | Previous Version | Graphics & Text | Print | Product List | Glossary On
Versions: 1 2 3 4 5 6 7 8 9 10 11 12 13 14 15 16 17 18 19 20 21 22 23 24 25 26 27
000
FTUS43 KDVN 251130
TAFCID
TAF
KCID 251130Z 2512/2612 08016G24KT 5SM -SHRA BR VCTS BKN025CB OVC035
      TEMPO 2512/2515 3SM -SHRA BKN015 OVC025
     FM251500 07016G23KT 3SM -SHRA BR SCT007 OVC012
     FM251800 07015G23KT 5SM -RA BR OVC015
     FM252300 04014KT P6SM BKN035
     FM260600 04008KT P6SM SKC=

USA.gov is the U.S. government's official web portal to all federal, state and local government web resources and services.